sensor_id;sensor_type;location;lat;lon;timestamp;P1;durP1;ratioP1;P2;durP2;ratioP2
6223;SDS011;3145;42.726;23.342;2023-02-28T00:00:36;34.77;;;22.83;;
6223;SDS011;3145;42.726;23.342;2023-02-28T00:03:03;41.70;;;25.27;;
6223;SDS011;3145;42.726;23.342;2023-02-28T00:05:30;40.80;;;26.10;;
6223;SDS011;3145;42.726;23.342;2023-02-28T00:07:58;42.73;;;28.07;;
6223;SDS011;3145;42.726;23.342;2023-02-28T00:10:26;35.30;;;23.13;;
6223;SDS011;3145;42.726;23.342;2023-02-28T00:12:55;36.20;;;20.57;;
6223;SDS011;3145;42.726;23.342;2023-02-28T00:15:24;37.13;;;25.30;;
6223;SDS011;3145;42.726;23.342;2023-02-28T00:17:51;36.23;;;24.03;;
6223;SDS011;3145;42.726;23.342;2023-02-28T00:20:18;34.20;;;22.50;;
6223;SDS011;3145;42.726;23.342;2023-02-28T00:22:46;37.40;;;23.23;;
6223;SDS011;3145;42.726;23.342;2023-02-28T00:25:15;38.00;;;23.20;;
6223;SDS011;3145;42.726;23.342;2023-02-28T00:27:44;43.03;;;23.10;;
6223;SDS011;3145;42.726;23.342;2023-02-28T00:30:12;40.93;;;22.63;;
6223;SDS011;3145;42.726;23.342;2023-02-28T00:32:41;38.60;;;21.77;;
6223;SDS011;3145;42.726;23.342;2023-02-28T00:35:09;37.27;;;22.40;;
6223;SDS011;3145;42.726;23.342;2023-02-28T00:37:36;34.57;;;21.23;;
6223;SDS011;3145;42.726;23.342;2023-02-28T00:40:04;34.57;;;21.37;;
6223;SDS011;3145;42.726;23.342;2023-02-28T00:42:32;35.83;;;22.50;;
6223;SDS011;3145;42.726;23.342;2023-02-28T00:44:59;38.43;;;22.00;;
6223;SDS011;3145;42.726;23.342;2023-02-28T00:47:26;36.17;;;22.67;;
6223;SDS011;3145;42.726;23.342;2023-02-28T00:49:54;37.00;;;21.10;;
6223;SDS011;3145;42.726;23.342;2023-02-28T00:52:21;33.93;;;21.77;;
6223;SDS011;3145;42.726;23.342;2023-02-28T00:54:48;38.27;;;22.53;;
6223;SDS011;3145;42.726;23.342;2023-02-28T00:57:14;31.60;;;21.13;;
6223;SDS011;3145;42.726;23.342;2023-02-28T00:59:41;33.13;;;20.77;;
6223;SDS011;3145;42.726;23.342;2023-02-28T01:02:08;32.50;;;21.10;;
6223;SDS011;3145;42.726;23.342;2023-02-28T01:04:35;38.57;;;22.00;;
6223;SDS011;3145;42.726;23.342;2023-02-28T01:07:03;39.87;;;24.37;;
6223;SDS011;3145;42.726;23.342;2023-02-28T01:09:30;45.07;;;24.33;;
6223;SDS011;3145;42.726;23.342;2023-02-28T01:11:56;43.63;;;23.40;;
6223;SDS011;3145;42.726;23.342;2023-02-28T01:14:23;38.73;;;23.17;;
6223;SDS011;3145;42.726;23.342;2023-02-28T01:16:50;33.40;;;21.27;;
6223;SDS011;3145;42.726;23.342;2023-02-28T01:19:17;35.13;;;21.83;;
6223;SDS011;3145;42.726;23.342;2023-02-28T01:21:44;36.30;;;22.10;;
6223;SDS011;3145;42.726;23.342;2023-02-28T01:24:12;34.13;;;21.63;;
6223;SDS011;3145;42.726;23.342;2023-02-28T01:26:39;33.13;;;21.07;;
6223;SDS011;3145;42.726;23.342;2023-02-28T01:29:06;33.23;;;20.10;;
6223;SDS011;3145;42.726;23.342;2023-02-28T01:31:32;27.40;;;18.93;;
6223;SDS011;3145;42.726;23.342;2023-02-28T01:33:59;28.17;;;19.50;;
6223;SDS011;3145;42.726;23.342;2023-02-28T01:36:26;27.47;;;18.47;;
6223;SDS011;3145;42.726;23.342;2023-02-28T01:38:52;24.17;;;16.63;;
6223;SDS011;3145;42.726;23.342;2023-02-28T01:41:21;26.73;;;17.87;;
6223;SDS011;3145;42.726;23.342;2023-02-28T01:43:54;27.93;;;18.47;;
6223;SDS011;3145;42.726;23.342;2023-02-28T01:46:23;32.97;;;19.00;;
6223;SDS011;3145;42.726;23.342;2023-02-28T01:48:51;28.40;;;18.63;;
6223;SDS011;3145;42.726;23.342;2023-02-28T01:51:21;29.43;;;18.23;;
6223;SDS011;3145;42.726;23.342;2023-02-28T01:53:54;27.13;;;18.37;;
6223;SDS011;3145;42.726;23.342;2023-02-28T01:56:27;26.23;;;18.70;;
6223;SDS011;3145;42.726;23.342;2023-02-28T01:58:57;30.47;;;17.50;;
6223;SDS011;3145;42.726;23.342;2023-02-28T02:01:24;33.50;;;19.20;;
6223;SDS011;3145;42.726;23.342;2023-02-28T02:03:54;27.27;;;18.37;;
6223;SDS011;3145;42.726;23.342;2023-02-28T02:06:22;28.23;;;17.40;;
6223;SDS011;3145;42.726;23.342;2023-02-28T02:08:51;27.77;;;19.77;;
6223;SDS011;3145;42.726;23.342;2023-02-28T02:11:19;29.43;;;18.47;;
6223;SDS011;3145;42.726;23.342;2023-02-28T02:13:53;29.03;;;18.67;;
6223;SDS011;3145;42.726;23.342;2023-02-28T02:16:38;29.63;;;19.00;;
6223;SDS011;3145;42.726;23.342;2023-02-28T02:19:21;31.17;;;19.93;;
6223;SDS011;3145;42.726;23.342;2023-02-28T02:22:20;35.00;;;20.73;;
6223;SDS011;3145;42.726;23.342;2023-02-28T02:25:08;32.47;;;20.93;;
6223;SDS011;3145;42.726;23.342;2023-02-28T02:27:50;34.73;;;21.00;;
6223;SDS011;3145;42.726;23.342;2023-02-28T02:30:45;30.97;;;20.43;;
6223;SDS011;3145;42.726;23.342;2023-02-28T02:33:28;32.03;;;20.00;;
6223;SDS011;3145;42.726;23.342;2023-02-28T02:36:13;29.87;;;19.47;;
6223;SDS011;3145;42.726;23.342;2023-02-28T02:38:48;31.57;;;19.97;;
6223;SDS011;3145;42.726;23.342;2023-02-28T02:41:24;28.63;;;20.47;;
6223;SDS011;3145;42.726;23.342;2023-02-28T02:43:56;29.47;;;20.33;;
6223;SDS011;3145;42.726;23.342;2023-02-28T02:46:29;33.83;;;22.07;;
6223;SDS011;3145;42.726;23.342;2023-02-28T02:48:59;40.63;;;24.00;;
6223;SDS011;3145;42.726;23.342;2023-02-28T02:51:31;34.67;;;22.00;;
6223;SDS011;3145;42.726;23.342;2023-02-28T02:54:00;41.87;;;24.10;;
6223;SDS011;3145;42.726;23.342;2023-02-28T02:56:31;35.63;;;23.20;;
6223;SDS011;3145;42.726;23.342;2023-02-28T02:59:02;44.27;;;25.67;;
6223;SDS011;3145;42.726;23.342;2023-02-28T03:01:30;69.63;;;34.13;;
6223;SDS011;3145;42.726;23.342;2023-02-28T03:03:59;107.17;;;48.50;;
6223;SDS011;3145;42.726;23.342;2023-02-28T03:06:28;107.77;;;49.37;;
6223;SDS011;3145;42.726;23.342;2023-02-28T03:08:56;99.90;;;48.70;;
6223;SDS011;3145;42.726;23.342;2023-02-28T03:11:23;70.93;;;39.67;;
6223;SDS011;3145;42.726;23.342;2023-02-28T03:14:03;61.33;;;34.23;;
6223;SDS011;3145;42.726;23.342;2023-02-28T03:16:46;61.80;;;32.90;;
6223;SDS011;3145;42.726;23.342;2023-02-28T03:22:14;45.63;;;26.20;;
6223;SDS011;3145;42.726;23.342;2023-02-28T03:24:53;58.80;;;31.70;;
6223;SDS011;3145;42.726;23.342;2023-02-28T03:27:24;99.40;;;49.13;;
6223;SDS011;3145;42.726;23.342;2023-02-28T03:29:57;55.57;;;31.20;;
6223;SDS011;3145;42.726;23.342;2023-02-28T03:32:28;56.23;;;32.50;;
6223;SDS011;3145;42.726;23.342;2023-02-28T03:35:00;78.97;;;45.93;;
6223;SDS011;3145;42.726;23.342;2023-02-28T03:37:32;78.30;;;46.37;;
6223;SDS011;3145;42.726;23.342;2023-02-28T03:40:04;73.30;;;42.37;;
6223;SDS011;3145;42.726;23.342;2023-02-28T03:42:35;47.83;;;29.47;;
6223;SDS011;3145;42.726;23.342;2023-02-28T03:45:04;44.13;;;27.07;;
6223;SDS011;3145;42.726;23.342;2023-02-28T03:47:36;238.53;;;81.47;;
6223;SDS011;3145;42.726;23.342;2023-02-28T03:50:06;62.70;;;34.10;;
6223;SDS011;3145;42.726;23.342;2023-02-28T03:52:38;56.30;;;29.77;;
6223;SDS011;3145;42.726;23.342;2023-02-28T03:55:12;56.37;;;29.63;;
6223;SDS011;3145;42.726;23.342;2023-02-28T03:57:44;85.77;;;39.17;;
6223;SDS011;3145;42.726;23.342;2023-02-28T04:00:18;86.63;;;39.33;;
6223;SDS011;3145;42.726;23.342;2023-02-28T04:02:47;61.93;;;33.40;;
6223;SDS011;3145;42.726;23.342;2023-02-28T04:05:17;71.83;;;37.63;;
6223;SDS011;3145;42.726;23.342;2023-02-28T04:07:44;72.27;;;41.30;;
6223;SDS011;3145;42.726;23.342;2023-02-28T04:10:12;88.37;;;51.70;;
6223;SDS011;3145;42.726;23.342;2023-02-28T04:12:40;61.77;;;38.87;;
6223;SDS011;3145;42.726;23.342;2023-02-28T04:15:07;57.87;;;37.07;;
6223;SDS011;3145;42.726;23.342;2023-02-28T04:17:35;48.30;;;30.93;;
6223;SDS011;3145;42.726;23.342;2023-02-28T04:20:02;44.60;;;26.93;;
6223;SDS011;3145;42.726;23.342;2023-02-28T04:22:34;40.97;;;25.40;;
6223;SDS011;3145;42.726;23.342;2023-02-28T04:25:01;38.53;;;23.37;;
6223;SDS011;3145;42.726;23.342;2023-02-28T04:27:29;37.17;;;22.80;;
6223;SDS011;3145;42.726;23.342;2023-02-28T04:29:56;38.33;;;22.00;;
6223;SDS011;3145;42.726;23.342;2023-02-28T04:32:23;43.87;;;23.63;;
6223;SDS011;3145;42.726;23.342;2023-02-28T04:34:50;58.97;;;25.37;;
6223;SDS011;3145;42.726;23.342;2023-02-28T04:37:16;75.93;;;31.23;;
6223;SDS011;3145;42.726;23.342;2023-02-28T04:39:43;111.17;;;35.07;;
6223;SDS011;3145;42.726;23.342;2023-02-28T04:42:10;133.67;;;38.03;;
6223;SDS011;3145;42.726;23.342;2023-02-28T04:44:39;127.00;;;36.13;;
6223;SDS011;3145;42.726;23.342;2023-02-28T04:47:06;97.80;;;33.73;;
6223;SDS011;3145;42.726;23.342;2023-02-28T04:49:32;114.33;;;32.23;;
6223;SDS011;3145;42.726;23.342;2023-02-28T04:51:59;110.17;;;32.27;;
6223;SDS011;3145;42.726;23.342;2023-02-28T04:54:27;116.77;;;38.10;;
6223;SDS011;3145;42.726;23.342;2023-02-28T04:56:54;190.13;;;62.20;;
6223;SDS011;3145;42.726;23.342;2023-02-28T04:59:20;219.60;;;70.63;;
6223;SDS011;3145;42.726;23.342;2023-02-28T05:01:49;143.23;;;62.27;;
6223;SDS011;3145;42.726;23.342;2023-02-28T05:04:16;210.10;;;68.67;;
6223;SDS011;3145;42.726;23.342;2023-02-28T05:06:43;208.27;;;59.50;;
6223;SDS011;3145;42.726;23.342;2023-02-28T05:09:10;137.50;;;50.63;;
6223;SDS011;3145;42.726;23.342;2023-02-28T05:11:39;174.63;;;57.40;;
6223;SDS011;3145;42.726;23.342;2023-02-28T05:14:09;161.27;;;50.93;;
6223;SDS011;3145;42.726;23.342;2023-02-28T05:16:37;248.00;;;76.10;;
6223;SDS011;3145;42.726;23.342;2023-02-28T05:19:06;286.17;;;74.67;;
6223;SDS011;3145;42.726;23.342;2023-02-28T05:21:33;148.17;;;47.03;;
6223;SDS011;3145;42.726;23.342;2023-02-28T05:24:02;305.47;;;52.00;;
6223;SDS011;3145;42.726;23.342;2023-02-28T05:26:31;160.83;;;42.10;;
6223;SDS011;3145;42.726;23.342;2023-02-28T05:29:01;111.60;;;38.70;;
6223;SDS011;3145;42.726;23.342;2023-02-28T05:31:28;146.70;;;45.30;;
6223;SDS011;3145;42.726;23.342;2023-02-28T05:33:54;191.70;;;40.73;;
6223;SDS011;3145;42.726;23.342;2023-02-28T05:36:23;222.03;;;33.70;;
6223;SDS011;3145;42.726;23.342;2023-02-28T05:38:50;147.60;;;34.17;;
6223;SDS011;3145;42.726;23.342;2023-02-28T05:41:18;109.83;;;33.27;;
6223;SDS011;3145;42.726;23.342;2023-02-28T05:43:46;119.20;;;33.70;;
6223;SDS011;3145;42.726;23.342;2023-02-28T05:46:13;94.07;;;32.57;;
6223;SDS011;3145;42.726;23.342;2023-02-28T05:48:41;116.77;;;30.77;;
6223;SDS011;3145;42.726;23.342;2023-02-28T05:51:09;142.10;;;35.47;;
6223;SDS011;3145;42.726;23.342;2023-02-28T05:53:37;146.37;;;43.73;;
6223;SDS011;3145;42.726;23.342;2023-02-28T05:56:04;115.70;;;43.73;;
6223;SDS011;3145;42.726;23.342;2023-02-28T05:58:31;186.17;;;50.43;;
6223;SDS011;3145;42.726;23.342;2023-02-28T06:01:00;145.87;;;43.87;;
6223;SDS011;3145;42.726;23.342;2023-02-28T06:03:44;118.20;;;37.73;;
6223;SDS011;3145;42.726;23.342;2023-02-28T06:06:11;162.30;;;38.97;;
6223;SDS011;3145;42.726;23.342;2023-02-28T06:08:39;159.40;;;36.40;;
6223;SDS011;3145;42.726;23.342;2023-02-28T06:11:08;163.63;;;41.33;;
6223;SDS011;3145;42.726;23.342;2023-02-28T06:13:35;106.10;;;31.00;;
6223;SDS011;3145;42.726;23.342;2023-02-28T06:16:02;92.83;;;30.00;;
6223;SDS011;3145;42.726;23.342;2023-02-28T06:18:29;144.87;;;31.07;;
6223;SDS011;3145;42.726;23.342;2023-02-28T06:20:56;112.00;;;32.17;;
6223;SDS011;3145;42.726;23.342;2023-02-28T06:23:23;101.17;;;33.20;;
6223;SDS011;3145;42.726;23.342;2023-02-28T06:25:51;106.33;;;32.10;;
6223;SDS011;3145;42.726;23.342;2023-02-28T06:28:21;88.37;;;29.63;;
6223;SDS011;3145;42.726;23.342;2023-02-28T06:30:47;107.00;;;33.33;;
6223;SDS011;3145;42.726;23.342;2023-02-28T06:33:14;73.23;;;32.20;;
6223;SDS011;3145;42.726;23.342;2023-02-28T06:35:43;97.97;;;38.13;;
6223;SDS011;3145;42.726;23.342;2023-02-28T06:38:10;93.83;;;32.07;;
6223;SDS011;3145;42.726;23.342;2023-02-28T06:40:37;90.97;;;31.50;;
6223;SDS011;3145;42.726;23.342;2023-02-28T06:43:05;88.97;;;30.63;;
6223;SDS011;3145;42.726;23.342;2023-02-28T06:45:32;68.93;;;31.23;;
6223;SDS011;3145;42.726;23.342;2023-02-28T06:47:58;59.03;;;29.00;;
6223;SDS011;3145;42.726;23.342;2023-02-28T06:50:25;60.00;;;28.87;;
6223;SDS011;3145;42.726;23.342;2023-02-28T06:52:54;58.80;;;28.43;;
6223;SDS011;3145;42.726;23.342;2023-02-28T06:55:21;54.63;;;28.67;;
6223;SDS011;3145;42.726;23.342;2023-02-28T06:57:47;60.63;;;32.53;;
6223;SDS011;3145;42.726;23.342;2023-02-28T07:00:17;56.67;;;28.53;;
6223;SDS011;3145;42.726;23.342;2023-02-28T07:02:45;55.40;;;28.17;;
6223;SDS011;3145;42.726;23.342;2023-02-28T07:05:12;55.23;;;28.53;;
6223;SDS011;3145;42.726;23.342;2023-02-28T07:07:39;61.23;;;31.03;;
6223;SDS011;3145;42.726;23.342;2023-02-28T07:10:09;46.67;;;27.37;;
6223;SDS011;3145;42.726;23.342;2023-02-28T07:12:37;49.80;;;27.10;;
6223;SDS011;3145;42.726;23.342;2023-02-28T07:15:04;46.37;;;26.00;;
6223;SDS011;3145;42.726;23.342;2023-02-28T07:17:33;46.07;;;24.73;;
6223;SDS011;3145;42.726;23.342;2023-02-28T07:20:00;40.13;;;24.57;;
6223;SDS011;3145;42.726;23.342;2023-02-28T07:22:29;46.43;;;26.13;;
6223;SDS011;3145;42.726;23.342;2023-02-28T07:24:56;46.37;;;27.20;;
6223;SDS011;3145;42.726;23.342;2023-02-28T07:27:23;45.53;;;26.97;;
6223;SDS011;3145;42.726;23.342;2023-02-28T07:29:50;64.57;;;35.60;;
6223;SDS011;3145;42.726;23.342;2023-02-28T07:32:17;64.67;;;35.93;;
6223;SDS011;3145;42.726;23.342;2023-02-28T07:34:45;61.93;;;35.53;;
6223;SDS011;3145;42.726;23.342;2023-02-28T07:37:13;62.67;;;36.17;;
6223;SDS011;3145;42.726;23.342;2023-02-28T07:39:40;50.17;;;31.90;;
6223;SDS011;3145;42.726;23.342;2023-02-28T07:42:08;52.77;;;32.17;;
6223;SDS011;3145;42.726;23.342;2023-02-28T07:44:37;55.10;;;32.63;;
6223;SDS011;3145;42.726;23.342;2023-02-28T07:47:05;53.37;;;33.20;;
6223;SDS011;3145;42.726;23.342;2023-02-28T07:49:33;60.23;;;34.03;;
6223;SDS011;3145;42.726;23.342;2023-02-28T07:52:01;62.07;;;34.67;;
6223;SDS011;3145;42.726;23.342;2023-02-28T07:54:28;55.60;;;34.37;;
6223;SDS011;3145;42.726;23.342;2023-02-28T07:56:55;60.00;;;32.47;;
6223;SDS011;3145;42.726;23.342;2023-02-28T07:59:22;52.23;;;32.37;;
6223;SDS011;3145;42.726;23.342;2023-02-28T08:01:49;57.40;;;33.17;;
6223;SDS011;3145;42.726;23.342;2023-02-28T08:04:16;62.33;;;34.60;;
6223;SDS011;3145;42.726;23.342;2023-02-28T08:06:43;61.20;;;33.87;;
6223;SDS011;3145;42.726;23.342;2023-02-28T08:09:11;58.30;;;32.97;;
6223;SDS011;3145;42.726;23.342;2023-02-28T08:11:38;57.93;;;34.10;;
6223;SDS011;3145;42.726;23.342;2023-02-28T08:14:04;61.97;;;36.57;;
6223;SDS011;3145;42.726;23.342;2023-02-28T08:16:31;54.90;;;33.90;;
6223;SDS011;3145;42.726;23.342;2023-02-28T08:18:58;55.43;;;34.30;;
6223;SDS011;3145;42.726;23.342;2023-02-28T08:21:25;56.33;;;35.00;;
6223;SDS011;3145;42.726;23.342;2023-02-28T08:23:51;58.07;;;35.90;;
6223;SDS011;3145;42.726;23.342;2023-02-28T08:26:20;56.93;;;33.33;;
6223;SDS011;3145;42.726;23.342;2023-02-28T08:28:46;63.70;;;35.00;;
6223;SDS011;3145;42.726;23.342;2023-02-28T08:31:14;56.00;;;32.93;;
6223;SDS011;3145;42.726;23.342;2023-02-28T08:33:41;50.23;;;31.97;;
6223;SDS011;3145;42.726;23.342;2023-02-28T08:36:09;57.80;;;34.83;;
6223;SDS011;3145;42.726;23.342;2023-02-28T08:38:37;56.83;;;33.97;;
6223;SDS011;3145;42.726;23.342;2023-02-28T08:41:05;85.07;;;44.57;;
6223;SDS011;3145;42.726;23.342;2023-02-28T08:43:36;88.07;;;42.83;;
6223;SDS011;3145;42.726;23.342;2023-02-28T08:46:04;84.00;;;43.90;;
6223;SDS011;3145;42.726;23.342;2023-02-28T08:48:32;71.37;;;38.63;;
6223;SDS011;3145;42.726;23.342;2023-02-28T08:51:04;71.80;;;35.77;;
6223;SDS011;3145;42.726;23.342;2023-02-28T08:53:34;55.00;;;30.90;;
6223;SDS011;3145;42.726;23.342;2023-02-28T08:56:01;57.03;;;30.47;;
6223;SDS011;3145;42.726;23.342;2023-02-28T08:58:30;44.17;;;28.60;;
6223;SDS011;3145;42.726;23.342;2023-02-28T09:00:58;59.20;;;30.33;;
6223;SDS011;3145;42.726;23.342;2023-02-28T09:03:25;57.40;;;33.57;;
6223;SDS011;3145;42.726;23.342;2023-02-28T09:05:56;58.23;;;34.00;;
6223;SDS011;3145;42.726;23.342;2023-02-28T09:08:24;41.13;;;24.27;;
6223;SDS011;3145;42.726;23.342;2023-02-28T09:10:52;32.77;;;18.03;;
6223;SDS011;3145;42.726;23.342;2023-02-28T09:13:19;44.63;;;22.63;;
6223;SDS011;3145;42.726;23.342;2023-02-28T09:15:46;35.37;;;20.90;;
6223;SDS011;3145;42.726;23.342;2023-02-28T09:18:15;34.07;;;17.67;;
6223;SDS011;3145;42.726;23.342;2023-02-28T09:20:42;45.67;;;20.67;;
6223;SDS011;3145;42.726;23.342;2023-02-28T09:23:09;37.13;;;19.33;;
6223;SDS011;3145;42.726;23.342;2023-02-28T09:25:44;40.73;;;22.27;;
6223;SDS011;3145;42.726;23.342;2023-02-28T09:28:12;25.53;;;13.90;;
6223;SDS011;3145;42.726;23.342;2023-02-28T09:30:39;33.87;;;17.57;;
6223;SDS011;3145;42.726;23.342;2023-02-28T09:33:06;34.00;;;16.20;;
6223;SDS011;3145;42.726;23.342;2023-02-28T09:35:34;27.40;;;15.50;;
6223;SDS011;3145;42.726;23.342;2023-02-28T09:38:02;20.90;;;14.47;;
6223;SDS011;3145;42.726;23.342;2023-02-28T09:40:30;31.00;;;16.37;;
6223;SDS011;3145;42.726;23.342;2023-02-28T09:42:57;31.37;;;15.97;;
6223;SDS011;3145;42.726;23.342;2023-02-28T09:45:27;28.93;;;17.80;;
6223;SDS011;3145;42.726;23.342;2023-02-28T09:47:58;27.47;;;14.57;;
6223;SDS011;3145;42.726;23.342;2023-02-28T09:50:30;34.23;;;16.33;;
6223;SDS011;3145;42.726;23.342;2023-02-28T09:53:03;43.53;;;21.17;;
6223;SDS011;3145;42.726;23.342;2023-02-28T09:55:37;36.80;;;21.50;;
6223;SDS011;3145;42.726;23.342;2023-02-28T09:58:10;27.97;;;16.03;;
6223;SDS011;3145;42.726;23.342;2023-02-28T10:00:45;25.87;;;13.97;;
6223;SDS011;3145;42.726;23.342;2023-02-28T10:03:28;26.33;;;14.03;;
6223;SDS011;3145;42.726;23.342;2023-02-28T10:06:01;25.00;;;14.17;;
6223;SDS011;3145;42.726;23.342;2023-02-28T10:08:37;26.83;;;11.17;;
6223;SDS011;3145;42.726;23.342;2023-02-28T10:11:11;24.97;;;15.60;;
6223;SDS011;3145;42.726;23.342;2023-02-28T10:13:45;35.83;;;16.97;;
6223;SDS011;3145;42.726;23.342;2023-02-28T10:16:20;25.13;;;13.70;;
6223;SDS011;3145;42.726;23.342;2023-02-28T10:18:51;32.80;;;15.27;;
6223;SDS011;3145;42.726;23.342;2023-02-28T10:21:23;24.83;;;13.87;;
6223;SDS011;3145;42.726;23.342;2023-02-28T10:23:56;28.93;;;16.50;;
6223;SDS011;3145;42.726;23.342;2023-02-28T10:26:29;29.40;;;14.90;;
6223;SDS011;3145;42.726;23.342;2023-02-28T10:28:57;26.90;;;13.10;;
6223;SDS011;3145;42.726;23.342;2023-02-28T10:31:24;41.33;;;16.10;;
6223;SDS011;3145;42.726;23.342;2023-02-28T10:33:51;18.23;;;13.50;;
6223;SDS011;3145;42.726;23.342;2023-02-28T10:36:19;29.30;;;17.00;;
6223;SDS011;3145;42.726;23.342;2023-02-28T10:38:48;22.07;;;13.40;;
6223;SDS011;3145;42.726;23.342;2023-02-28T10:41:18;24.13;;;13.47;;
6223;SDS011;3145;42.726;23.342;2023-02-28T10:43:54;21.03;;;13.47;;
6223;SDS011;3145;42.726;23.342;2023-02-28T10:46:39;19.27;;;12.13;;
6223;SDS011;3145;42.726;23.342;2023-02-28T10:49:12;28.50;;;14.93;;
6223;SDS011;3145;42.726;23.342;2023-02-28T10:51:41;32.33;;;17.00;;
6223;SDS011;3145;42.726;23.342;2023-02-28T10:54:16;42.07;;;18.57;;
6223;SDS011;3145;42.726;23.342;2023-02-28T10:56:45;26.47;;;14.77;;
6223;SDS011;3145;42.726;23.342;2023-02-28T10:59:31;35.70;;;19.80;;
6223;SDS011;3145;42.726;23.342;2023-02-28T11:01:58;23.07;;;14.07;;
6223;SDS011;3145;42.726;23.342;2023-02-28T11:04:35;22.70;;;12.43;;
6223;SDS011;3145;42.726;23.342;2023-02-28T11:07:05;42.50;;;19.10;;
6223;SDS011;3145;42.726;23.342;2023-02-28T11:09:44;34.70;;;16.33;;
6223;SDS011;3145;42.726;23.342;2023-02-28T11:12:19;24.33;;;15.77;;
6223;SDS011;3145;42.726;23.342;2023-02-28T11:14:48;34.30;;;18.03;;
6223;SDS011;3145;42.726;23.342;2023-02-28T11:17:19;31.13;;;15.80;;
6223;SDS011;3145;42.726;23.342;2023-02-28T11:19:49;19.40;;;12.63;;
6223;SDS011;3145;42.726;23.342;2023-02-28T11:22:19;29.57;;;16.50;;
6223;SDS011;3145;42.726;23.342;2023-02-28T11:24:51;20.43;;;10.27;;
6223;SDS011;3145;42.726;23.342;2023-02-28T11:27:25;33.23;;;12.83;;
6223;SDS011;3145;42.726;23.342;2023-02-28T11:33:17;24.83;;;12.77;;
6223;SDS011;3145;42.726;23.342;2023-02-28T11:35:47;26.30;;;12.73;;
6223;SDS011;3145;42.726;23.342;2023-02-28T11:38:16;31.07;;;17.00;;
6223;SDS011;3145;42.726;23.342;2023-02-28T11:40:46;17.83;;;10.37;;
6223;SDS011;3145;42.726;23.342;2023-02-28T11:43:21;18.23;;;10.07;;
6223;SDS011;3145;42.726;23.342;2023-02-28T11:46:01;21.50;;;12.30;;
6223;SDS011;3145;42.726;23.342;2023-02-28T11:48:38;22.67;;;12.47;;
6223;SDS011;3145;42.726;23.342;2023-02-28T11:51:15;25.70;;;16.03;;
6223;SDS011;3145;42.726;23.342;2023-02-28T11:53:50;36.03;;;17.27;;
6223;SDS011;3145;42.726;23.342;2023-02-28T11:56:31;24.57;;;11.80;;
6223;SDS011;3145;42.726;23.342;2023-02-28T11:59:05;29.97;;;14.77;;
6223;SDS011;3145;42.726;23.342;2023-02-28T12:01:46;23.40;;;12.23;;
6223;SDS011;3145;42.726;23.342;2023-02-28T12:04:32;28.43;;;12.03;;
6223;SDS011;3145;42.726;23.342;2023-02-28T12:07:14;25.07;;;10.97;;
6223;SDS011;3145;42.726;23.342;2023-02-28T12:09:53;19.50;;;10.63;;
6223;SDS011;3145;42.726;23.342;2023-02-28T12:12:36;16.03;;;8.07;;
6223;SDS011;3145;42.726;23.342;2023-02-28T12:15:17;27.03;;;10.97;;
6223;SDS011;3145;42.726;23.342;2023-02-28T12:17:55;20.33;;;10.70;;
6223;SDS011;3145;42.726;23.342;2023-02-28T12:20:36;18.73;;;8.00;;
6223;SDS011;3145;42.726;23.342;2023-02-28T12:23:17;28.07;;;13.90;;
6223;SDS011;3145;42.726;23.342;2023-02-28T12:28:44;19.07;;;9.60;;
6223;SDS011;3145;42.726;23.342;2023-02-28T12:31:17;17.10;;;7.33;;
6223;SDS011;3145;42.726;23.342;2023-02-28T12:33:47;23.73;;;13.93;;
6223;SDS011;3145;42.726;23.342;2023-02-28T12:36:19;14.47;;;9.63;;
6223;SDS011;3145;42.726;23.342;2023-02-28T12:38:49;21.30;;;9.60;;
6223;SDS011;3145;42.726;23.342;2023-02-28T12:41:22;17.67;;;10.93;;
6223;SDS011;3145;42.726;23.342;2023-02-28T12:43:57;20.30;;;10.67;;
6223;SDS011;3145;42.726;23.342;2023-02-28T12:46:29;23.33;;;11.73;;
6223;SDS011;3145;42.726;23.342;2023-02-28T12:49:00;18.17;;;7.97;;
6223;SDS011;3145;42.726;23.342;2023-02-28T12:51:32;16.63;;;9.07;;
6223;SDS011;3145;42.726;23.342;2023-02-28T12:54:04;22.53;;;9.80;;
6223;SDS011;3145;42.726;23.342;2023-02-28T12:56:42;17.93;;;10.17;;
6223;SDS011;3145;42.726;23.342;2023-02-28T12:59:17;27.80;;;14.50;;
6223;SDS011;3145;42.726;23.342;2023-02-28T13:02:00;31.40;;;16.50;;
6223;SDS011;3145;42.726;23.342;2023-02-28T13:04:47;23.03;;;11.93;;
6223;SDS011;3145;42.726;23.342;2023-02-28T13:10:37;27.40;;;14.90;;
6223;SDS011;3145;42.726;23.342;2023-02-28T13:13:06;27.50;;;13.87;;
6223;SDS011;3145;42.726;23.342;2023-02-28T13:15:34;23.30;;;12.47;;
6223;SDS011;3145;42.726;23.342;2023-02-28T13:18:20;26.33;;;13.73;;
6223;SDS011;3145;42.726;23.342;2023-02-28T13:20:54;23.93;;;11.70;;
6223;SDS011;3145;42.726;23.342;2023-02-28T13:23:38;20.40;;;10.10;;
6223;SDS011;3145;42.726;23.342;2023-02-28T13:26:21;22.93;;;9.83;;
6223;SDS011;3145;42.726;23.342;2023-02-28T13:28:58;21.00;;;10.20;;
6223;SDS011;3145;42.726;23.342;2023-02-28T13:31:27;33.90;;;14.13;;
6223;SDS011;3145;42.726;23.342;2023-02-28T13:34:12;28.30;;;13.13;;
6223;SDS011;3145;42.726;23.342;2023-02-28T13:36:41;29.40;;;11.30;;
6223;SDS011;3145;42.726;23.342;2023-02-28T13:47:53;25.63;;;13.33;;
6223;SDS011;3145;42.726;23.342;2023-02-28T13:50:27;22.60;;;11.60;;
6223;SDS011;3145;42.726;23.342;2023-02-28T13:53:00;16.67;;;10.37;;
6223;SDS011;3145;42.726;23.342;2023-02-28T13:55:44;25.33;;;12.47;;
6223;SDS011;3145;42.726;23.342;2023-02-28T13:58:25;15.10;;;9.63;;
6223;SDS011;3145;42.726;23.342;2023-02-28T14:01:11;25.63;;;12.97;;
6223;SDS011;3145;42.726;23.342;2023-02-28T14:03:56;24.17;;;11.67;;
6223;SDS011;3145;42.726;23.342;2023-02-28T14:06:46;20.17;;;11.07;;
6223;SDS011;3145;42.726;23.342;2023-02-28T14:09:19;13.03;;;7.70;;
6223;SDS011;3145;42.726;23.342;2023-02-28T14:11:50;27.17;;;13.70;;
6223;SDS011;3145;42.726;23.342;2023-02-28T14:17:24;29.53;;;15.10;;
6223;SDS011;3145;42.726;23.342;2023-02-28T14:19:53;26.17;;;12.73;;
6223;SDS011;3145;42.726;23.342;2023-02-28T14:22:29;26.63;;;12.57;;
6223;SDS011;3145;42.726;23.342;2023-02-28T14:25:16;26.83;;;14.47;;
6223;SDS011;3145;42.726;23.342;2023-02-28T14:27:49;33.50;;;16.40;;
6223;SDS011;3145;42.726;23.342;2023-02-28T14:30:36;29.97;;;14.80;;
6223;SDS011;3145;42.726;23.342;2023-02-28T14:33:20;33.10;;;15.40;;
6223;SDS011;3145;42.726;23.342;2023-02-28T14:36:00;26.17;;;12.00;;
6223;SDS011;3145;42.726;23.342;2023-02-28T14:38:32;24.00;;;15.80;;
6223;SDS011;3145;42.726;23.342;2023-02-28T14:41:03;53.90;;;33.73;;
6223;SDS011;3145;42.726;23.342;2023-02-28T14:43:32;31.57;;;18.37;;
6223;SDS011;3145;42.726;23.342;2023-02-28T14:46:00;20.50;;;12.03;;
6223;SDS011;3145;42.726;23.342;2023-02-28T14:48:28;27.73;;;12.10;;
6223;SDS011;3145;42.726;23.342;2023-02-28T14:50:56;26.60;;;14.27;;
6223;SDS011;3145;42.726;23.342;2023-02-28T14:53:27;25.40;;;13.67;;
6223;SDS011;3145;42.726;23.342;2023-02-28T14:55:56;30.37;;;15.47;;
6223;SDS011;3145;42.726;23.342;2023-02-28T14:58:24;18.40;;;12.73;;
6223;SDS011;3145;42.726;23.342;2023-02-28T15:00:52;24.63;;;17.10;;
6223;SDS011;3145;42.726;23.342;2023-02-28T15:03:21;20.13;;;12.73;;
6223;SDS011;3145;42.726;23.342;2023-02-28T15:05:52;26.40;;;16.80;;
6223;SDS011;3145;42.726;23.342;2023-02-28T15:08:21;20.90;;;12.83;;
6223;SDS011;3145;42.726;23.342;2023-02-28T15:10:53;26.27;;;17.90;;
6223;SDS011;3145;42.726;23.342;2023-02-28T15:13:22;18.07;;;11.77;;
6223;SDS011;3145;42.726;23.342;2023-02-28T15:15:53;40.80;;;23.70;;
6223;SDS011;3145;42.726;23.342;2023-02-28T15:18:25;81.40;;;35.47;;